sensor_id;sensor_type;location;lat;lon;timestamp;P1;durP1;ratioP1;P2;durP2;ratioP2
67092;SDS011;54011;50.772;7.730;2022-10-26T00:00:36;24.05;;;4.38;;
67092;SDS011;54011;50.772;7.730;2022-10-26T00:03:02;13.50;;;4.40;;
67092;SDS011;54011;50.772;7.730;2022-10-26T00:05:31;14.00;;;4.90;;
67092;SDS011;54011;50.772;7.730;2022-10-26T00:07:58;20.08;;;4.97;;
67092;SDS011;54011;50.772;7.730;2022-10-26T00:10:24;15.55;;;4.28;;
67092;SDS011;54011;50.772;7.730;2022-10-26T00:12:50;14.77;;;4.30;;
67092;SDS011;54011;50.772;7.730;2022-10-26T00:15:16;15.80;;;4.10;;
67092;SDS011;54011;50.772;7.730;2022-10-26T00:17:43;16.60;;;4.78;;
67092;SDS011;54011;50.772;7.730;2022-10-26T00:20:08;13.98;;;4.38;;
67092;SDS011;54011;50.772;7.730;2022-10-26T00:22:34;17.48;;;5.00;;
67092;SDS011;54011;50.772;7.730;2022-10-26T00:25:00;13.23;;;4.00;;
67092;SDS011;54011;50.772;7.730;2022-10-26T00:27:25;8.93;;;3.95;;
67092;SDS011;54011;50.772;7.730;2022-10-26T00:29:51;15.90;;;3.50;;
67092;SDS011;54011;50.772;7.730;2022-10-26T00:32:16;14.20;;;3.70;;
67092;SDS011;54011;50.772;7.730;2022-10-26T00:34:42;10.50;;;3.75;;
67092;SDS011;54011;50.772;7.730;2022-10-26T00:37:07;14.18;;;4.07;;
67092;SDS011;54011;50.772;7.730;2022-10-26T00:39:36;17.33;;;3.80;;
67092;SDS011;54011;50.772;7.730;2022-10-26T00:42:02;11.88;;;4.70;;
67092;SDS011;54011;50.772;7.730;2022-10-26T00:47:12;17.95;;;4.90;;
67092;SDS011;54011;50.772;7.730;2022-10-26T00:49:42;17.30;;;4.65;;
67092;SDS011;54011;50.772;7.730;2022-10-26T00:52:11;10.18;;;4.70;;
67092;SDS011;54011;50.772;7.730;2022-10-26T00:54:38;11.27;;;4.15;;
67092;SDS011;54011;50.772;7.730;2022-10-26T00:57:04;9.35;;;4.53;;
67092;SDS011;54011;50.772;7.730;2022-10-26T00:59:30;17.77;;;4.68;;
67092;SDS011;54011;50.772;7.730;2022-10-26T01:01:56;12.30;;;3.85;;
67092;SDS011;54011;50.772;7.730;2022-10-26T01:04:23;10.40;;;2.35;;
67092;SDS011;54011;50.772;7.730;2022-10-26T01:06:48;13.07;;;2.47;;
67092;SDS011;54011;50.772;7.730;2022-10-26T01:09:14;18.15;;;2.70;;
67092;SDS011;54011;50.772;7.730;2022-10-26T01:11:41;8.65;;;2.50;;
67092;SDS011;54011;50.772;7.730;2022-10-26T01:14:07;16.52;;;3.08;;
67092;SDS011;54011;50.772;7.730;2022-10-26T01:19:18;15.45;;;3.08;;
67092;SDS011;54011;50.772;7.730;2022-10-26T01:22:05;12.32;;;4.22;;
67092;SDS011;54011;50.772;7.730;2022-10-26T01:27:44;11.30;;;4.40;;
67092;SDS011;54011;50.772;7.730;2022-10-26T01:30:18;9.85;;;4.30;;
67092;SDS011;54011;50.772;7.730;2022-10-26T01:47:22;8.50;;;4.13;;
67092;SDS011;54011;50.772;7.730;2022-10-26T01:49:53;27.10;;;5.28;;
67092;SDS011;54011;50.772;7.730;2022-10-26T01:52:21;15.25;;;4.38;;
67092;SDS011;54011;50.772;7.730;2022-10-26T01:54:47;16.00;;;4.82;;
67092;SDS011;54011;50.772;7.730;2022-10-26T01:57:14;12.73;;;4.90;;
67092;SDS011;54011;50.772;7.730;2022-10-26T02:05:17;13.43;;;4.13;;
67092;SDS011;54011;50.772;7.730;2022-10-26T02:07:55;10.02;;;4.38;;
67092;SDS011;54011;50.772;7.730;2022-10-26T02:15:53;13.90;;;4.78;;
67092;SDS011;54011;50.772;7.730;2022-10-26T02:20:57;12.70;;;4.70;;
67092;SDS011;54011;50.772;7.730;2022-10-26T02:23:30;11.95;;;4.65;;
67092;SDS011;54011;50.772;7.730;2022-10-26T02:25:58;16.27;;;4.30;;
67092;SDS011;54011;50.772;7.730;2022-10-26T02:28:27;12.07;;;4.70;;
67092;SDS011;54011;50.772;7.730;2022-10-26T02:30:57;16.58;;;4.65;;
67092;SDS011;54011;50.772;7.730;2022-10-26T02:33:26;11.43;;;4.07;;
67092;SDS011;54011;50.772;7.730;2022-10-26T02:35:55;14.93;;;4.05;;
67092;SDS011;54011;50.772;7.730;2022-10-26T02:38:24;12.65;;;4.28;;
67092;SDS011;54011;50.772;7.730;2022-10-26T02:40:53;14.52;;;4.00;;
67092;SDS011;54011;50.772;7.730;2022-10-26T02:43:20;14.45;;;3.95;;
67092;SDS011;54011;50.772;7.730;2022-10-26T02:45:52;15.02;;;4.10;;
67092;SDS011;54011;50.772;7.730;2022-10-26T02:48:23;10.80;;;4.30;;
67092;SDS011;54011;50.772;7.730;2022-10-26T02:53:25;17.60;;;3.83;;
67092;SDS011;54011;50.772;7.730;2022-10-26T02:56:03;14.65;;;4.13;;
67092;SDS011;54011;50.772;7.730;2022-10-26T02:58:33;10.95;;;4.35;;
67092;SDS011;54011;50.772;7.730;2022-10-26T03:01:05;12.95;;;3.55;;
67092;SDS011;54011;50.772;7.730;2022-10-26T03:03:31;12.55;;;4.47;;
67092;SDS011;54011;50.772;7.730;2022-10-26T03:05:56;14.30;;;4.22;;
67092;SDS011;54011;50.772;7.730;2022-10-26T03:08:22;8.05;;;3.15;;
67092;SDS011;54011;50.772;7.730;2022-10-26T03:10:48;13.30;;;2.63;;
67092;SDS011;54011;50.772;7.730;2022-10-26T03:13:13;12.70;;;3.22;;
67092;SDS011;54011;50.772;7.730;2022-10-26T03:15:39;8.02;;;3.35;;
67092;SDS011;54011;50.772;7.730;2022-10-26T03:18:05;18.73;;;3.83;;
67092;SDS011;54011;50.772;7.730;2022-10-26T03:20:31;14.98;;;4.15;;
67092;SDS011;54011;50.772;7.730;2022-10-26T03:22:58;13.68;;;4.30;;
67092;SDS011;54011;50.772;7.730;2022-10-26T03:25:31;11.48;;;4.20;;
67092;SDS011;54011;50.772;7.730;2022-10-26T03:27:57;9.43;;;4.20;;
67092;SDS011;54011;50.772;7.730;2022-10-26T03:30:24;10.43;;;3.97;;
67092;SDS011;54011;50.772;7.730;2022-10-26T03:32:50;8.43;;;3.90;;
67092;SDS011;54011;50.772;7.730;2022-10-26T03:35:18;9.30;;;4.05;;
67092;SDS011;54011;50.772;7.730;2022-10-26T03:37:43;8.48;;;3.50;;
67092;SDS011;54011;50.772;7.730;2022-10-26T03:40:12;9.05;;;3.47;;
67092;SDS011;54011;50.772;7.730;2022-10-26T03:42:38;9.52;;;3.65;;
67092;SDS011;54011;50.772;7.730;2022-10-26T03:45:05;7.45;;;3.40;;
67092;SDS011;54011;50.772;7.730;2022-10-26T03:47:31;10.32;;;3.28;;
67092;SDS011;54011;50.772;7.730;2022-10-26T03:49:57;12.70;;;3.80;;
67092;SDS011;54011;50.772;7.730;2022-10-26T03:52:23;13.40;;;3.70;;
67092;SDS011;54011;50.772;7.730;2022-10-26T03:54:49;14.98;;;3.80;;
67092;SDS011;54011;50.772;7.730;2022-10-26T03:57:15;21.67;;;3.45;;
67092;SDS011;54011;50.772;7.730;2022-10-26T03:59:40;9.63;;;3.67;;
67092;SDS011;54011;50.772;7.730;2022-10-26T04:02:06;13.95;;;3.30;;
67092;SDS011;54011;50.772;7.730;2022-10-26T04:04:31;17.65;;;3.75;;
67092;SDS011;54011;50.772;7.730;2022-10-26T04:06:57;12.75;;;3.25;;
67092;SDS011;54011;50.772;7.730;2022-10-26T04:09:22;14.57;;;3.40;;
67092;SDS011;54011;50.772;7.730;2022-10-26T04:11:48;11.63;;;3.25;;
67092;SDS011;54011;50.772;7.730;2022-10-26T04:14:13;14.13;;;3.45;;
67092;SDS011;54011;50.772;7.730;2022-10-26T04:16:39;8.02;;;2.90;;
67092;SDS011;54011;50.772;7.730;2022-10-26T04:19:04;8.00;;;2.88;;
67092;SDS011;54011;50.772;7.730;2022-10-26T04:21:30;17.02;;;3.00;;
67092;SDS011;54011;50.772;7.730;2022-10-26T04:23:57;11.38;;;2.92;;
67092;SDS011;54011;50.772;7.730;2022-10-26T04:26:22;8.57;;;3.20;;
67092;SDS011;54011;50.772;7.730;2022-10-26T04:28:48;6.65;;;2.45;;
67092;SDS011;54011;50.772;7.730;2022-10-26T04:31:14;12.02;;;3.35;;
67092;SDS011;54011;50.772;7.730;2022-10-26T04:33:40;9.57;;;3.15;;
67092;SDS011;54011;50.772;7.730;2022-10-26T04:36:06;8.10;;;3.28;;
67092;SDS011;54011;50.772;7.730;2022-10-26T04:38:35;6.40;;;2.55;;
67092;SDS011;54011;50.772;7.730;2022-10-26T04:41:00;10.57;;;2.20;;
67092;SDS011;54011;50.772;7.730;2022-10-26T04:43:26;11.43;;;2.38;;
67092;SDS011;54011;50.772;7.730;2022-10-26T04:45:56;6.45;;;2.13;;
67092;SDS011;54011;50.772;7.730;2022-10-26T04:48:22;8.88;;;2.00;;
67092;SDS011;54011;50.772;7.730;2022-10-26T04:50:49;4.32;;;1.80;;
67092;SDS011;54011;50.772;7.730;2022-10-26T04:53:15;10.07;;;2.25;;
67092;SDS011;54011;50.772;7.730;2022-10-26T04:55:41;14.02;;;2.80;;
67092;SDS011;54011;50.772;7.730;2022-10-26T04:58:07;15.23;;;3.95;;
67092;SDS011;54011;50.772;7.730;2022-10-26T05:00:33;10.68;;;2.67;;
67092;SDS011;54011;50.772;7.730;2022-10-26T05:02:59;11.93;;;3.03;;
67092;SDS011;54011;50.772;7.730;2022-10-26T05:05:29;17.55;;;2.95;;
67092;SDS011;54011;50.772;7.730;2022-10-26T05:07:56;10.35;;;2.70;;
67092;SDS011;54011;50.772;7.730;2022-10-26T05:10:22;6.97;;;3.25;;
67092;SDS011;54011;50.772;7.730;2022-10-26T05:12:52;10.48;;;2.88;;
67092;SDS011;54011;50.772;7.730;2022-10-26T05:15:18;13.00;;;3.17;;
67092;SDS011;54011;50.772;7.730;2022-10-26T05:17:44;11.13;;;3.20;;
67092;SDS011;54011;50.772;7.730;2022-10-26T05:20:10;10.82;;;2.88;;
67092;SDS011;54011;50.772;7.730;2022-10-26T05:22:39;8.20;;;2.85;;
67092;SDS011;54011;50.772;7.730;2022-10-26T05:25:05;10.13;;;2.83;;
67092;SDS011;54011;50.772;7.730;2022-10-26T05:27:31;8.88;;;3.13;;
67092;SDS011;54011;50.772;7.730;2022-10-26T05:29:56;13.50;;;2.78;;
67092;SDS011;54011;50.772;7.730;2022-10-26T05:32:22;10.85;;;3.03;;
67092;SDS011;54011;50.772;7.730;2022-10-26T05:34:47;12.32;;;2.95;;
67092;SDS011;54011;50.772;7.730;2022-10-26T05:37:13;7.18;;;2.35;;
67092;SDS011;54011;50.772;7.730;2022-10-26T05:39:38;7.70;;;2.42;;
67092;SDS011;54011;50.772;7.730;2022-10-26T05:42:04;6.65;;;2.33;;
67092;SDS011;54011;50.772;7.730;2022-10-26T05:44:29;7.43;;;2.40;;
67092;SDS011;54011;50.772;7.730;2022-10-26T05:46:54;7.80;;;2.28;;
67092;SDS011;54011;50.772;7.730;2022-10-26T05:49:20;7.50;;;2.45;;
67092;SDS011;54011;50.772;7.730;2022-10-26T05:51:46;9.80;;;2.70;;
67092;SDS011;54011;50.772;7.730;2022-10-26T05:54:11;9.32;;;2.20;;
67092;SDS011;54011;50.772;7.730;2022-10-26T05:56:40;7.20;;;2.40;;
67092;SDS011;54011;50.772;7.730;2022-10-26T05:59:10;12.38;;;2.78;;
67092;SDS011;54011;50.772;7.730;2022-10-26T06:04:08;12.02;;;4.00;;
67092;SDS011;54011;50.772;7.730;2022-10-26T06:06:45;16.67;;;3.45;;
67092;SDS011;54011;50.772;7.730;2022-10-26T06:09:15;8.80;;;2.78;;
67092;SDS011;54011;50.772;7.730;2022-10-26T06:11:41;7.80;;;2.72;;
67092;SDS011;54011;50.772;7.730;2022-10-26T06:14:07;8.55;;;2.58;;
67092;SDS011;54011;50.772;7.730;2022-10-26T06:30:19;14.43;;;5.35;;
67092;SDS011;54011;50.772;7.730;2022-10-26T06:32:47;16.45;;;5.45;;
67092;SDS011;54011;50.772;7.730;2022-10-26T06:37:59;11.75;;;5.13;;
67092;SDS011;54011;50.772;7.730;2022-10-26T06:40:30;11.32;;;5.50;;
67092;SDS011;54011;50.772;7.730;2022-10-26T06:42:57;13.00;;;5.13;;
67092;SDS011;54011;50.772;7.730;2022-10-26T06:45:24;11.50;;;5.05;;
67092;SDS011;54011;50.772;7.730;2022-10-26T06:47:55;13.48;;;4.18;;
67092;SDS011;54011;50.772;7.730;2022-10-26T06:50:37;11.23;;;4.10;;
67092;SDS011;54011;50.772;7.730;2022-10-26T06:55:53;12.98;;;3.70;;
67092;SDS011;54011;50.772;7.730;2022-10-26T06:58:22;9.27;;;3.17;;
67092;SDS011;54011;50.772;7.730;2022-10-26T07:00:52;13.05;;;2.95;;
67092;SDS011;54011;50.772;7.730;2022-10-26T07:03:18;13.80;;;3.33;;
67092;SDS011;54011;50.772;7.730;2022-10-26T07:05:44;13.32;;;2.47;;
67092;SDS011;54011;50.772;7.730;2022-10-26T07:08:10;12.32;;;2.67;;
67092;SDS011;54011;50.772;7.730;2022-10-26T07:10:36;7.28;;;2.30;;
67092;SDS011;54011;50.772;7.730;2022-10-26T07:13:12;9.18;;;2.35;;
67092;SDS011;54011;50.772;7.730;2022-10-26T07:15:38;9.63;;;2.50;;
67092;SDS011;54011;50.772;7.730;2022-10-26T07:18:05;10.02;;;3.38;;
67092;SDS011;54011;50.772;7.730;2022-10-26T07:20:34;8.77;;;3.13;;
67092;SDS011;54011;50.772;7.730;2022-10-26T07:23:01;10.55;;;3.10;;
67092;SDS011;54011;50.772;7.730;2022-10-26T07:25:26;8.00;;;2.25;;
67092;SDS011;54011;50.772;7.730;2022-10-26T07:27:55;6.78;;;2.38;;
67092;SDS011;54011;50.772;7.730;2022-10-26T07:30:22;7.53;;;2.65;;
67092;SDS011;54011;50.772;7.730;2022-10-26T07:32:48;6.05;;;2.47;;
67092;SDS011;54011;50.772;7.730;2022-10-26T07:35:13;6.30;;;2.13;;
67092;SDS011;54011;50.772;7.730;2022-10-26T07:37:39;13.85;;;2.30;;
67092;SDS011;54011;50.772;7.730;2022-10-26T07:40:05;5.07;;;2.30;;
67092;SDS011;54011;50.772;7.730;2022-10-26T07:42:31;6.07;;;2.22;;
67092;SDS011;54011;50.772;7.730;2022-10-26T07:44:56;7.90;;;2.05;;
67092;SDS011;54011;50.772;7.730;2022-10-26T07:47:22;7.15;;;2.30;;
67092;SDS011;54011;50.772;7.730;2022-10-26T07:49:47;11.63;;;2.20;;
67092;SDS011;54011;50.772;7.730;2022-10-26T07:52:12;9.30;;;2.30;;
67092;SDS011;54011;50.772;7.730;2022-10-26T07:54:38;7.32;;;2.28;;
67092;SDS011;54011;50.772;7.730;2022-10-26T07:57:03;6.15;;;2.00;;
67092;SDS011;54011;50.772;7.730;2022-10-26T07:59:29;17.05;;;2.15;;
67092;SDS011;54011;50.772;7.730;2022-10-26T08:01:54;17.23;;;2.25;;
67092;SDS011;54011;50.772;7.730;2022-10-26T08:04:20;6.50;;;1.90;;
67092;SDS011;54011;50.772;7.730;2022-10-26T08:06:45;9.23;;;2.10;;
67092;SDS011;54011;50.772;7.730;2022-10-26T08:09:11;14.43;;;2.22;;
67092;SDS011;54011;50.772;7.730;2022-10-26T08:11:37;9.52;;;2.40;;
67092;SDS011;54011;50.772;7.730;2022-10-26T08:14:02;9.52;;;2.00;;
67092;SDS011;54011;50.772;7.730;2022-10-26T08:16:29;9.35;;;1.85;;
67092;SDS011;54011;50.772;7.730;2022-10-26T08:18:55;5.00;;;1.80;;
67092;SDS011;54011;50.772;7.730;2022-10-26T08:21:21;5.80;;;1.73;;
67092;SDS011;54011;50.772;7.730;2022-10-26T08:23:46;4.55;;;1.73;;
67092;SDS011;54011;50.772;7.730;2022-10-26T08:26:12;5.97;;;1.92;;
67092;SDS011;54011;50.772;7.730;2022-10-26T08:28:38;9.25;;;2.00;;
67092;SDS011;54011;50.772;7.730;2022-10-26T08:31:04;7.50;;;2.08;;
67092;SDS011;54011;50.772;7.730;2022-10-26T08:33:30;11.13;;;1.98;;
67092;SDS011;54011;50.772;7.730;2022-10-26T08:35:57;12.00;;;2.15;;
67092;SDS011;54011;50.772;7.730;2022-10-26T08:38:23;7.05;;;2.03;;
67092;SDS011;54011;50.772;7.730;2022-10-26T08:40:49;9.73;;;2.03;;
67092;SDS011;54011;50.772;7.730;2022-10-26T08:45:46;7.10;;;2.30;;
67092;SDS011;54011;50.772;7.730;2022-10-26T08:48:20;12.18;;;2.75;;
67092;SDS011;54011;50.772;7.730;2022-10-26T08:50:57;8.82;;;2.10;;
67092;SDS011;54011;50.772;7.730;2022-10-26T08:56:13;4.53;;;1.60;;
67092;SDS011;54011;50.772;7.730;2022-10-26T08:58:46;7.85;;;1.70;;
67092;SDS011;54011;50.772;7.730;2022-10-26T09:01:17;5.35;;;1.80;;
67092;SDS011;54011;50.772;7.730;2022-10-26T09:03:42;7.22;;;1.73;;
67092;SDS011;54011;50.772;7.730;2022-10-26T09:08:57;8.32;;;1.58;;
67092;SDS011;54011;50.772;7.730;2022-10-26T09:19:31;8.50;;;1.80;;
67092;SDS011;54011;50.772;7.730;2022-10-26T09:24:31;3.25;;;1.25;;
67092;SDS011;54011;50.772;7.730;2022-10-26T09:27:18;7.30;;;2.00;;
67092;SDS011;54011;50.772;7.730;2022-10-26T09:29:55;12.05;;;1.85;;
67092;SDS011;54011;50.772;7.730;2022-10-26T09:32:42;7.07;;;1.92;;
67092;SDS011;54011;50.772;7.730;2022-10-26T09:43:55;10.15;;;1.95;;
67092;SDS011;54011;50.772;7.730;2022-10-26T09:46:30;8.55;;;2.20;;
67092;SDS011;54011;50.772;7.730;2022-10-26T09:49:00;8.40;;;1.92;;
67092;SDS011;54011;50.772;7.730;2022-10-26T09:51:32;8.65;;;2.10;;
67092;SDS011;54011;50.772;7.730;2022-10-26T09:54:00;12.27;;;2.08;;
67092;SDS011;54011;50.772;7.730;2022-10-26T09:56:27;9.05;;;1.90;;
67092;SDS011;54011;50.772;7.730;2022-10-26T09:58:59;8.15;;;2.08;;
67092;SDS011;54011;50.772;7.730;2022-10-26T10:01:29;9.05;;;2.00;;
67092;SDS011;54011;50.772;7.730;2022-10-26T10:06:41;13.18;;;2.10;;
67092;SDS011;54011;50.772;7.730;2022-10-26T10:14:08;10.45;;;2.17;;
67092;SDS011;54011;50.772;7.730;2022-10-26T10:16:40;11.00;;;2.30;;
67092;SDS011;54011;50.772;7.730;2022-10-26T10:19:20;10.43;;;2.38;;
67092;SDS011;54011;50.772;7.730;2022-10-26T10:21:57;9.38;;;2.15;;
67092;SDS011;54011;50.772;7.730;2022-10-26T10:24:32;9.27;;;2.65;;
67092;SDS011;54011;50.772;7.730;2022-10-26T10:32:16;7.50;;;2.15;;
67092;SDS011;54011;50.772;7.730;2022-10-26T10:34:51;8.75;;;1.98;;
67092;SDS011;54011;50.772;7.730;2022-10-26T10:40:08;4.85;;;1.77;;
67092;SDS011;54011;50.772;7.730;2022-10-26T10:42:38;14.15;;;2.20;;
67092;SDS011;54011;50.772;7.730;2022-10-26T10:45:06;8.05;;;2.00;;
67092;SDS011;54011;50.772;7.730;2022-10-26T10:47:43;11.10;;;2.05;;
67092;SDS011;54011;50.772;7.730;2022-10-26T10:50:25;10.68;;;2.33;;
67092;SDS011;54011;50.772;7.730;2022-10-26T10:52:50;7.10;;;1.92;;
67092;SDS011;54011;50.772;7.730;2022-10-26T10:55:18;10.15;;;2.10;;
67092;SDS011;54011;50.772;7.730;2022-10-26T10:58:04;13.05;;;3.00;;
67092;SDS011;54011;50.772;7.730;2022-10-26T11:00:35;8.95;;;2.03;;
67092;SDS011;54011;50.772;7.730;2022-10-26T11:10:51;8.18;;;2.05;;
67092;SDS011;54011;50.772;7.730;2022-10-26T11:13:25;7.38;;;2.13;;
67092;SDS011;54011;50.772;7.730;2022-10-26T11:15:58;9.18;;;1.95;;
67092;SDS011;54011;50.772;7.730;2022-10-26T11:18:31;9.23;;;1.90;;
67092;SDS011;54011;50.772;7.730;2022-10-26T11:21:06;6.78;;;1.98;;
67092;SDS011;54011;50.772;7.730;2022-10-26T11:26:40;6.70;;;2.17;;
67092;SDS011;54011;50.772;7.730;2022-10-26T11:29:15;6.82;;;2.00;;
67092;SDS011;54011;50.772;7.730;2022-10-26T11:31:48;8.80;;;1.98;;
67092;SDS011;54011;50.772;7.730;2022-10-26T11:34:21;10.38;;;2.30;;
67092;SDS011;54011;50.772;7.730;2022-10-26T11:36:54;12.20;;;2.20;;
67092;SDS011;54011;50.772;7.730;2022-10-26T11:39:33;13.75;;;2.17;;
67092;SDS011;54011;50.772;7.730;2022-10-26T11:42:08;5.43;;;1.83;;
67092;SDS011;54011;50.772;7.730;2022-10-26T11:44:46;7.55;;;1.80;;
67092;SDS011;54011;50.772;7.730;2022-10-26T11:47:21;9.80;;;1.90;;
67092;SDS011;54011;50.772;7.730;2022-10-26T11:52:44;16.15;;;2.05;;
67092;SDS011;54011;50.772;7.730;2022-10-26T11:55:21;7.38;;;2.03;;
67092;SDS011;54011;50.772;7.730;2022-10-26T11:57:47;12.90;;;2.13;;
67092;SDS011;54011;50.772;7.730;2022-10-26T12:00:15;7.45;;;1.98;;
67092;SDS011;54011;50.772;7.730;2022-10-26T12:02:45;11.25;;;2.10;;
67092;SDS011;54011;50.772;7.730;2022-10-26T12:08:16;9.35;;;2.10;;
67092;SDS011;54011;50.772;7.730;2022-10-26T12:14:02;10.52;;;1.85;;
67092;SDS011;54011;50.772;7.730;2022-10-26T12:16:43;12.13;;;1.90;;
67092;SDS011;54011;50.772;7.730;2022-10-26T12:21:45;9.50;;;1.92;;
67092;SDS011;54011;50.772;7.730;2022-10-26T12:26:51;8.38;;;2.00;;
67092;SDS011;54011;50.772;7.730;2022-10-26T12:31:51;10.05;;;1.85;;
67092;SDS011;54011;50.772;7.730;2022-10-26T12:34:23;8.90;;;1.88;;
67092;SDS011;54011;50.772;7.730;2022-10-26T12:42:40;7.47;;;1.67;;
67092;SDS011;54011;50.772;7.730;2022-10-26T12:52:32;9.98;;;1.70;;
67092;SDS011;54011;50.772;7.730;2022-10-26T12:57:47;6.72;;;1.58;;
67092;SDS011;54011;50.772;7.730;2022-10-26T13:00:24;7.65;;;1.50;;
67092;SDS011;54011;50.772;7.730;2022-10-26T13:06:02;6.70;;;1.27;;
67092;SDS011;54011;50.772;7.730;2022-10-26T13:08:38;6.03;;;1.50;;
67092;SDS011;54011;50.772;7.730;2022-10-26T13:11:19;7.35;;;1.60;;
67092;SDS011;54011;50.772;7.730;2022-10-26T13:13:53;9.27;;;1.63;;
67092;SDS011;54011;50.772;7.730;2022-10-26T13:16:21;9.90;;;1.70;;
67092;SDS011;54011;50.772;7.730;2022-10-26T13:18:49;5.97;;;1.70;;
67092;SDS011;54011;50.772;7.730;2022-10-26T13:21:15;6.22;;;1.50;;
67092;SDS011;54011;50.772;7.730;2022-10-26T13:23:42;8.90;;;1.75;;
67092;SDS011;54011;50.772;7.730;2022-10-26T13:26:12;5.63;;;1.50;;
67092;SDS011;54011;50.772;7.730;2022-10-26T13:33:53;3.58;;;1.00;;
67092;SDS011;54011;50.772;7.730;2022-10-26T13:38:51;9.73;;;1.40;;
67092;SDS011;54011;50.772;7.730;2022-10-26T13:41:31;4.65;;;1.20;;
67092;SDS011;54011;50.772;7.730;2022-10-26T13:44:03;5.88;;;1.67;;
67092;SDS011;54011;50.772;7.730;2022-10-26T13:46:32;7.60;;;1.30;;
67092;SDS011;54011;50.772;7.730;2022-10-26T13:49:10;11.88;;;1.23;;
67092;SDS011;54011;50.772;7.730;2022-10-26T13:51:43;8.35;;;1.45;;
67092;SDS011;54011;50.772;7.730;2022-10-26T13:54:29;6.07;;;1.48;;
67092;SDS011;54011;50.772;7.730;2022-10-26T13:59:32;8.63;;;1.23;;
67092;SDS011;54011;50.772;7.730;2022-10-26T14:02:07;6.68;;;1.23;;
67092;SDS011;54011;50.772;7.730;2022-10-26T14:04:46;4.35;;;1.20;;
67092;SDS011;54011;50.772;7.730;2022-10-26T14:07:20;7.70;;;1.33;;
67092;SDS011;54011;50.772;7.730;2022-10-26T14:09:51;10.95;;;1.65;;
67092;SDS011;54011;50.772;7.730;2022-10-26T14:12:19;4.65;;;1.30;;
67092;SDS011;54011;50.772;7.730;2022-10-26T14:14:45;7.03;;;1.60;;
67092;SDS011;54011;50.772;7.730;2022-10-26T14:17:16;10.23;;;1.58;;
67092;SDS011;54011;50.772;7.730;2022-10-26T14:19:43;4.00;;;1.55;;
67092;SDS011;54011;50.772;7.730;2022-10-26T14:22:15;12.57;;;1.60;;
67092;SDS011;54011;50.772;7.730;2022-10-26T14:24:49;9.52;;;1.50;;
67092;SDS011;54011;50.772;7.730;2022-10-26T14:27:21;7.95;;;1.70;;
67092;SDS011;54011;50.772;7.730;2022-10-26T14:29:52;11.57;;;1.80;;
67092;SDS011;54011;50.772;7.730;2022-10-26T14:32:28;7.75;;;1.45;;
67092;SDS011;54011;50.772;7.730;2022-10-26T14:34:58;6.28;;;1.70;;
67092;SDS011;54011;50.772;7.730;2022-10-26T14:39:49;6.63;;;1.60;;
67092;SDS011;54011;50.772;7.730;2022-10-26T14:44:55;13.68;;;1.33;;
67092;SDS011;54011;50.772;7.730;2022-10-26T14:47:24;6.38;;;1.55;;
67092;SDS011;54011;50.772;7.730;2022-10-26T14:49:52;7.70;;;1.67;;
67092;SDS011;54011;50.772;7.730;2022-10-26T14:52:23;6.43;;;1.65;;
67092;SDS011;54011;50.772;7.730;2022-10-26T14:57:38;9.60;;;1.88;;
67092;SDS011;54011;50.772;7.730;2022-10-26T15:02:52;9.00;;;1.70;;
67092;SDS011;54011;50.772;7.730;2022-10-26T15:07:48;7.53;;;1.67;;
67092;SDS011;54011;50.772;7.730;2022-10-26T15:13:09;6.55;;;1.38;;
67092;SDS011;54011;50.772;7.730;2022-10-26T15:18:56;5.40;;;1.70;;
67092;SDS011;54011;50.772;7.730;2022-10-26T15:23:56;4.72;;;1.70;;
67092;SDS011;54011;50.772;7.730;2022-10-26T15:26:22;7.70;;;1.80;;
67092;SDS011;54011;50.772;7.730;2022-10-26T15:28:48;8.38;;;1.48;;
67092;SDS011;54011;50.772;7.730;2022-10-26T15:38:32;11.90;;;1.70;;
67092;SDS011;54011;50.772;7.730;2022-10-26T15:40:57;8.75;;;1.58;;
67092;SDS011;54011;50.772;7.730;2022-10-26T15:43:23;7.95;;;1.73;;
67092;SDS011;54011;50.772;7.730;2022-10-26T15:45:49;8.77;;;1.70;;
67092;SDS011;54011;50.772;7.730;2022-10-26T15:48:25;14.05;;;4.32;;
67092;SDS011;54011;50.772;7.730;2022-10-26T15:50:56;8.77;;;1.55;;
67092;SDS011;54011;50.772;7.730;2022-10-26T15:53:23;9.88;;;1.77;;
67092;SDS011;54011;50.772;7.730;2022-10-26T15:55:52;7.60;;;1.65;;
67092;SDS011;54011;50.772;7.730;2022-10-26T15:58:20;11.65;;;1.60;;
67092;SDS011;54011;50.772;7.730;2022-10-26T16:00:46;11.93;;;2.13;;
67092;SDS011;54011;50.772;7.730;2022-10-26T16:03:12;8.25;;;1.95;;
67092;SDS011;54011;50.772;7.730;2022-10-26T16:05:41;12.88;;;2.30;;
67092;SDS011;54011;50.772;7.730;2022-10-26T16:08:16;9.23;;;2.00;;
67092;SDS011;54011;50.772;7.730;2022-10-26T16:10:42;12.50;;;1.83;;
67092;SDS011;54011;50.772;7.730;2022-10-26T16:13:11;12.40;;;1.70;;
67092;SDS011;54011;50.772;7.730;2022-10-26T16:15:37;12.50;;;1.95;;
67092;SDS011;54011;50.772;7.730;2022-10-26T16:18:03;5.45;;;1.45;;
67092;SDS011;54011;50.772;7.730;2022-10-26T16:20:29;7.68;;;1.67;;
67092;SDS011;54011;50.772;7.730;2022-10-26T16:22:55;6.90;;;1.75;;
67092;SDS011;54011;50.772;7.730;2022-10-26T16:25:24;8.98;;;1.58;;
67092;SDS011;54011;50.772;7.730;2022-10-26T16:27:50;6.55;;;1.40;;
67092;SDS011;54011;50.772;7.730;2022-10-26T16:30:17;9.82;;;1.92;;
67092;SDS011;54011;50.772;7.730;2022-10-26T16:32:43;10.18;;;1.40;;
67092;SDS011;54011;50.772;7.730;2022-10-26T16:35:09;7.47;;;1.33;;
67092;SDS011;54011;50.772;7.730;2022-10-26T16:37:36;6.55;;;1.42;;
67092;SDS011;54011;50.772;7.730;2022-10-26T16:40:01;9.15;;;1.88;;
67092;SDS011;54011;50.772;7.730;2022-10-26T16:42:29;9.73;;;1.80;;
67092;SDS011;54011;50.772;7.730;2022-10-26T16:44:55;6.03;;;1.50;;
67092;SDS011;54011;50.772;7.730;2022-10-26T16:47:20;17.92;;;2.05;;
67092;SDS011;54011;50.772;7.730;2022-10-26T16:49:46;7.78;;;1.63;;
67092;SDS011;54011;50.772;7.730;2022-10-26T16:52:12;6.70;;;1.77;;
67092;SDS011;54011;50.772;7.730;2022-10-26T16:54:37;6.93;;;1.50;;
67092;SDS011;54011;50.772;7.730;2022-10-26T16:57:03;14.13;;;1.80;;
67092;SDS011;54011;50.772;7.730;2022-10-26T16:59:29;7.43;;;1.55;;
67092;SDS011;54011;50.772;7.730;2022-10-26T17:01:55;13.60;;;1.58;;
67092;SDS011;54011;50.772;7.730;2022-10-26T17:04:21;7.78;;;1.73;;
67092;SDS011;54011;50.772;7.730;2022-10-26T17:06:46;7.72;;;1.70;;
67092;SDS011;54011;50.772;7.730;2022-10-26T17:09:12;11.90;;;1.70;;
67092;SDS011;54011;50.772;7.730;2022-10-26T17:11:38;9.43;;;1.70;;
67092;SDS011;54011;50.772;7.730;2022-10-26T17:14:03;8.60;;;1.60;;
67092;SDS011;54011;50.772;7.730;2022-10-26T17:16:29;5.15;;;1.52;;
67092;SDS011;54011;50.772;7.730;2022-10-26T17:18:56;7.80;;;1.38;;
67092;SDS011;54011;50.772;7.730;2022-10-26T17:21:28;7.57;;;1.77;;
67092;SDS011;54011;50.772;7.730;2022-10-26T17:23:55;6.20;;;1.70;;
67092;SDS011;54011;50.772;7.730;2022-10-26T17:26:24;8.15;;;1.92;;
67092;SDS011;54011;50.772;7.730;2022-10-26T17:28:53;9.18;;;2.45;;
67092;SDS011;54011;50.772;7.730;2022-10-26T17:31:21;12.18;;;1.80;;
67092;SDS011;54011;50.772;7.730;2022-10-26T17:33:47;8.30;;;1.80;;
67092;SDS011;54011;50.772;7.730;2022-10-26T17:36:15;9.02;;;1.40;;
67092;SDS011;54011;50.772;7.730;2022-10-26T17:38:46;9.20;;;1.80;;
67092;SDS011;54011;50.772;7.730;2022-10-26T17:41:35;11.85;;;1.83;;
67092;SDS011;54011;50.772;7.730;2022-10-26T17:44:06;8.00;;;1.67;;
67092;SDS011;54011;50.772;7.730;2022-10-26T17:51:02;6.97;;;1.33;;
67092;SDS011;54011;50.772;7.730;2022-10-26T17:53:32;10.50;;;1.70;;
67092;SDS011;54011;50.772;7.730;2022-10-26T17:58:54;10.80;;;1.80;;
67092;SDS011;54011;50.772;7.730;2022-10-26T18:01:37;8.25;;;1.70;;
67092;SDS011;54011;50.772;7.730;2022-10-26T18:04:03;8.57;;;1.85;;
67092;SDS011;54011;50.772;7.730;2022-10-26T18:06:28;15.95;;;3.10;;